sensor_id;sensor_type;location;lat;lon;timestamp;P1;durP1;ratioP1;P2;durP2;ratioP2
5813;SDS011;2933;52.302;8.134;2022-10-16T00:00:41;5.27;;;4.93;;
5813;SDS011;2933;52.302;8.134;2022-10-16T00:05:45;9.13;;;6.80;;
5813;SDS011;2933;52.302;8.134;2022-10-16T00:10:46;7.00;;;6.50;;
5813;SDS011;2933;52.302;8.134;2022-10-16T00:15:48;10.43;;;5.80;;
5813;SDS011;2933;52.302;8.134;2022-10-16T00:20:51;8.50;;;6.73;;
5813;SDS011;2933;52.302;8.134;2022-10-16T00:25:56;6.60;;;5.97;;
5813;SDS011;2933;52.302;8.134;2022-10-16T00:30:58;14.23;;;6.87;;
5813;SDS011;2933;52.302;8.134;2022-10-16T00:36:02;8.10;;;7.30;;
5813;SDS011;2933;52.302;8.134;2022-10-16T00:41:05;7.03;;;6.53;;
5813;SDS011;2933;52.302;8.134;2022-10-16T00:46:13;7.40;;;6.87;;
5813;SDS011;2933;52.302;8.134;2022-10-16T00:51:21;8.43;;;6.67;;
5813;SDS011;2933;52.302;8.134;2022-10-16T00:56:26;6.70;;;6.20;;
5813;SDS011;2933;52.302;8.134;2022-10-16T01:01:28;13.77;;;7.13;;
5813;SDS011;2933;52.302;8.134;2022-10-16T01:06:34;7.67;;;7.10;;
5813;SDS011;2933;52.302;8.134;2022-10-16T01:11:44;8.30;;;7.60;;
5813;SDS011;2933;52.302;8.134;2022-10-16T01:16:56;8.80;;;6.80;;
5813;SDS011;2933;52.302;8.134;2022-10-16T01:22:05;11.33;;;6.90;;
5813;SDS011;2933;52.302;8.134;2022-10-16T01:27:12;6.80;;;6.40;;
5813;SDS011;2933;52.302;8.134;2022-10-16T01:32:16;6.87;;;6.27;;
5813;SDS011;2933;52.302;8.134;2022-10-16T01:37:27;7.70;;;7.00;;
5813;SDS011;2933;52.302;8.134;2022-10-16T01:42:36;9.87;;;8.07;;
5813;SDS011;2933;52.302;8.134;2022-10-16T01:47:40;10.03;;;8.67;;
5813;SDS011;2933;52.302;8.134;2022-10-16T01:52:44;10.87;;;9.80;;
5813;SDS011;2933;52.302;8.134;2022-10-16T01:57:50;12.93;;;11.70;;
5813;SDS011;2933;52.302;8.134;2022-10-16T02:02:53;16.30;;;15.07;;
5813;SDS011;2933;52.302;8.134;2022-10-16T02:07:57;19.50;;;17.37;;
5813;SDS011;2933;52.302;8.134;2022-10-16T02:13:02;20.97;;;19.30;;
5813;SDS011;2933;52.302;8.134;2022-10-16T02:18:07;20.43;;;18.70;;
5813;SDS011;2933;52.302;8.134;2022-10-16T02:23:12;21.77;;;19.97;;
5813;SDS011;2933;52.302;8.134;2022-10-16T02:28:22;24.00;;;21.93;;
5813;SDS011;2933;52.302;8.134;2022-10-16T02:33:29;23.50;;;21.30;;
5813;SDS011;2933;52.302;8.134;2022-10-16T02:38:33;25.27;;;22.90;;
5813;SDS011;2933;52.302;8.134;2022-10-16T02:43:37;23.13;;;21.40;;
5813;SDS011;2933;52.302;8.134;2022-10-16T02:48:39;22.70;;;20.43;;
5813;SDS011;2933;52.302;8.134;2022-10-16T02:53:41;22.33;;;20.57;;
5813;SDS011;2933;52.302;8.134;2022-10-16T02:58:44;19.53;;;18.00;;
5813;SDS011;2933;52.302;8.134;2022-10-16T03:03:45;18.43;;;16.83;;
5813;SDS011;2933;52.302;8.134;2022-10-16T03:08:47;18.20;;;16.60;;
5813;SDS011;2933;52.302;8.134;2022-10-16T03:13:50;14.30;;;12.90;;
5813;SDS011;2933;52.302;8.134;2022-10-16T03:18:51;19.90;;;15.77;;
5813;SDS011;2933;52.302;8.134;2022-10-16T03:23:53;15.90;;;14.60;;
5813;SDS011;2933;52.302;8.134;2022-10-16T03:28:56;21.60;;;19.77;;
5813;SDS011;2933;52.302;8.134;2022-10-16T03:33:57;22.20;;;20.07;;
5813;SDS011;2933;52.302;8.134;2022-10-16T03:38:59;22.93;;;21.13;;
5813;SDS011;2933;52.302;8.134;2022-10-16T03:44:02;23.90;;;22.10;;
5813;SDS011;2933;52.302;8.134;2022-10-16T03:49:03;25.40;;;23.10;;
5813;SDS011;2933;52.302;8.134;2022-10-16T03:54:05;28.13;;;26.07;;
5813;SDS011;2933;52.302;8.134;2022-10-16T03:59:08;28.40;;;26.27;;
5813;SDS011;2933;52.302;8.134;2022-10-16T04:04:09;27.07;;;24.67;;
5813;SDS011;2933;52.302;8.134;2022-10-16T04:09:11;25.50;;;23.77;;
5813;SDS011;2933;52.302;8.134;2022-10-16T04:14:14;27.07;;;25.00;;
5813;SDS011;2933;52.302;8.134;2022-10-16T04:19:16;23.53;;;21.83;;
5813;SDS011;2933;52.302;8.134;2022-10-16T04:24:18;25.53;;;23.73;;
5813;SDS011;2933;52.302;8.134;2022-10-16T04:29:21;21.30;;;19.90;;
5813;SDS011;2933;52.302;8.134;2022-10-16T04:34:22;25.43;;;23.63;;
5813;SDS011;2933;52.302;8.134;2022-10-16T04:39:24;22.63;;;21.00;;
5813;SDS011;2933;52.302;8.134;2022-10-16T04:44:27;20.60;;;19.10;;
5813;SDS011;2933;52.302;8.134;2022-10-16T04:49:28;21.63;;;20.10;;
5813;SDS011;2933;52.302;8.134;2022-10-16T04:54:30;21.27;;;19.77;;
5813;SDS011;2933;52.302;8.134;2022-10-16T04:59:33;20.60;;;18.87;;
5813;SDS011;2933;52.302;8.134;2022-10-16T05:04:35;18.30;;;17.20;;
5813;SDS011;2933;52.302;8.134;2022-10-16T05:09:36;17.57;;;16.27;;
5813;SDS011;2933;52.302;8.134;2022-10-16T05:14:39;17.70;;;16.33;;
5813;SDS011;2933;52.302;8.134;2022-10-16T05:19:41;17.87;;;16.97;;
5813;SDS011;2933;52.302;8.134;2022-10-16T05:24:42;17.50;;;16.40;;
5813;SDS011;2933;52.302;8.134;2022-10-16T05:29:45;16.50;;;15.20;;
5813;SDS011;2933;52.302;8.134;2022-10-16T05:34:47;16.80;;;15.70;;
5813;SDS011;2933;52.302;8.134;2022-10-16T05:39:51;14.80;;;14.00;;
5813;SDS011;2933;52.302;8.134;2022-10-16T05:44:55;16.50;;;15.70;;
5813;SDS011;2933;52.302;8.134;2022-10-16T05:49:56;15.10;;;14.10;;
5813;SDS011;2933;52.302;8.134;2022-10-16T05:54:58;14.57;;;13.77;;
5813;SDS011;2933;52.302;8.134;2022-10-16T06:00:01;14.27;;;13.47;;
5813;SDS011;2933;52.302;8.134;2022-10-16T06:05:03;14.87;;;14.07;;
5813;SDS011;2933;52.302;8.134;2022-10-16T06:10:06;15.43;;;14.47;;
5813;SDS011;2933;52.302;8.134;2022-10-16T06:15:10;14.67;;;13.57;;
5813;SDS011;2933;52.302;8.134;2022-10-16T06:20:12;13.97;;;13.17;;
5813;SDS011;2933;52.302;8.134;2022-10-16T06:25:13;12.53;;;11.70;;
5813;SDS011;2933;52.302;8.134;2022-10-16T06:30:16;12.40;;;11.80;;
5813;SDS011;2933;52.302;8.134;2022-10-16T06:35:18;13.10;;;12.30;;
5813;SDS011;2933;52.302;8.134;2022-10-16T06:40:20;12.70;;;12.10;;
5813;SDS011;2933;52.302;8.134;2022-10-16T06:45:23;14.13;;;13.30;;
5813;SDS011;2933;52.302;8.134;2022-10-16T06:50:24;14.30;;;13.17;;
5813;SDS011;2933;52.302;8.134;2022-10-16T06:55:26;12.87;;;12.27;;
5813;SDS011;2933;52.302;8.134;2022-10-16T07:00:29;13.33;;;12.80;;
5813;SDS011;2933;52.302;8.134;2022-10-16T07:05:31;12.33;;;11.83;;
5813;SDS011;2933;52.302;8.134;2022-10-16T07:10:32;12.00;;;11.40;;
5813;SDS011;2933;52.302;8.134;2022-10-16T07:15:35;9.57;;;9.10;;
5813;SDS011;2933;52.302;8.134;2022-10-16T07:20:37;10.80;;;10.33;;
5813;SDS011;2933;52.302;8.134;2022-10-16T07:25:38;9.77;;;9.37;;
5813;SDS011;2933;52.302;8.134;2022-10-16T07:30:41;8.40;;;7.90;;
5813;SDS011;2933;52.302;8.134;2022-10-16T07:35:47;8.70;;;8.40;;
5813;SDS011;2933;52.302;8.134;2022-10-16T07:40:55;10.63;;;9.70;;
5813;SDS011;2933;52.302;8.134;2022-10-16T07:45:59;9.60;;;9.10;;
5813;SDS011;2933;52.302;8.134;2022-10-16T07:51:02;8.70;;;8.27;;
5813;SDS011;2933;52.302;8.134;2022-10-16T07:56:05;8.10;;;7.80;;
5813;SDS011;2933;52.302;8.134;2022-10-16T08:01:11;7.33;;;7.03;;
5813;SDS011;2933;52.302;8.134;2022-10-16T08:06:14;7.30;;;7.10;;
5813;SDS011;2933;52.302;8.134;2022-10-16T08:11:16;6.23;;;5.93;;
5813;SDS011;2933;52.302;8.134;2022-10-16T08:16:19;7.07;;;6.33;;
5813;SDS011;2933;52.302;8.134;2022-10-16T08:21:21;5.07;;;4.93;;
5813;SDS011;2933;52.302;8.134;2022-10-16T08:26:24;5.10;;;4.70;;
5813;SDS011;2933;52.302;8.134;2022-10-16T08:31:27;4.53;;;4.33;;
5813;SDS011;2933;52.302;8.134;2022-10-16T08:36:29;3.70;;;3.60;;
5813;SDS011;2933;52.302;8.134;2022-10-16T08:41:39;4.00;;;3.70;;
5813;SDS011;2933;52.302;8.134;2022-10-16T08:47:03;3.87;;;3.17;;
5813;SDS011;2933;52.302;8.134;2022-10-16T08:52:14;5.33;;;2.67;;
5813;SDS011;2933;52.302;8.134;2022-10-16T08:57:16;2.53;;;2.40;;
5813;SDS011;2933;52.302;8.134;2022-10-16T09:02:24;4.40;;;2.40;;
5813;SDS011;2933;52.302;8.134;2022-10-16T09:07:32;2.20;;;1.80;;
5813;SDS011;2933;52.302;8.134;2022-10-16T09:12:39;1.43;;;1.33;;
5813;SDS011;2933;52.302;8.134;2022-10-16T09:17:50;3.40;;;2.10;;
5813;SDS011;2933;52.302;8.134;2022-10-16T09:23:00;1.60;;;1.50;;
5813;SDS011;2933;52.302;8.134;2022-10-16T09:28:13;5.40;;;1.47;;
5813;SDS011;2933;52.302;8.134;2022-10-16T09:33:18;1.63;;;1.20;;
5813;SDS011;2933;52.302;8.134;2022-10-16T09:38:24;1.77;;;1.17;;
5813;SDS011;2933;52.302;8.134;2022-10-16T09:43:28;1.10;;;1.10;;
5813;SDS011;2933;52.302;8.134;2022-10-16T09:48:38;2.43;;;1.23;;
5813;SDS011;2933;52.302;8.134;2022-10-16T09:53:45;0.90;;;0.90;;
5813;SDS011;2933;52.302;8.134;2022-10-16T09:58:49;1.63;;;1.10;;
5813;SDS011;2933;52.302;8.134;2022-10-16T10:03:55;1.50;;;1.20;;
5813;SDS011;2933;52.302;8.134;2022-10-16T10:09:04;3.17;;;1.43;;
5813;SDS011;2933;52.302;8.134;2022-10-16T10:14:09;5.23;;;0.90;;
5813;SDS011;2933;52.302;8.134;2022-10-16T10:19:20;3.17;;;1.20;;
5813;SDS011;2933;52.302;8.134;2022-10-16T10:24:23;2.60;;;1.00;;
5813;SDS011;2933;52.302;8.134;2022-10-16T10:29:29;5.13;;;1.00;;
5813;SDS011;2933;52.302;8.134;2022-10-16T10:34:44;1.87;;;1.07;;
5813;SDS011;2933;52.302;8.134;2022-10-16T10:39:59;4.57;;;0.97;;
5813;SDS011;2933;52.302;8.134;2022-10-16T10:45:13;4.10;;;0.93;;
5813;SDS011;2933;52.302;8.134;2022-10-16T10:50:29;1.30;;;1.00;;
5813;SDS011;2933;52.302;8.134;2022-10-16T10:55:40;3.90;;;1.10;;
5813;SDS011;2933;52.302;8.134;2022-10-16T11:00:49;2.47;;;1.00;;
5813;SDS011;2933;52.302;8.134;2022-10-16T11:06:01;1.70;;;1.60;;
5813;SDS011;2933;52.302;8.134;2022-10-16T11:11:08;0.90;;;0.90;;
5813;SDS011;2933;52.302;8.134;2022-10-16T11:16:17;2.97;;;0.83;;
5813;SDS011;2933;52.302;8.134;2022-10-16T11:21:24;2.63;;;0.77;;
5813;SDS011;2933;52.302;8.134;2022-10-16T11:26:28;0.90;;;0.70;;
5813;SDS011;2933;52.302;8.134;2022-10-16T11:31:36;2.87;;;0.73;;
5813;SDS011;2933;52.302;8.134;2022-10-16T11:36:43;1.83;;;0.70;;
5813;SDS011;2933;52.302;8.134;2022-10-16T11:41:49;1.37;;;0.90;;
5813;SDS011;2933;52.302;8.134;2022-10-16T11:46:58;4.43;;;0.80;;
5813;SDS011;2933;52.302;8.134;2022-10-16T11:52:12;1.20;;;1.10;;
5813;SDS011;2933;52.302;8.134;2022-10-16T11:57:19;1.20;;;1.07;;
5813;SDS011;2933;52.302;8.134;2022-10-16T12:02:28;2.60;;;1.50;;
5813;SDS011;2933;52.302;8.134;2022-10-16T12:07:39;3.33;;;1.50;;
5813;SDS011;2933;52.302;8.134;2022-10-16T12:12:46;2.93;;;1.50;;
5813;SDS011;2933;52.302;8.134;2022-10-16T12:17:48;5.30;;;1.60;;
5813;SDS011;2933;52.302;8.134;2022-10-16T12:22:52;2.07;;;1.47;;
5813;SDS011;2933;52.302;8.134;2022-10-16T12:27:57;4.03;;;1.90;;
5813;SDS011;2933;52.302;8.134;2022-10-16T12:33:01;4.17;;;1.50;;
5813;SDS011;2933;52.302;8.134;2022-10-16T12:38:08;1.83;;;1.33;;
5813;SDS011;2933;52.302;8.134;2022-10-16T12:43:24;2.77;;;1.37;;
5813;SDS011;2933;52.302;8.134;2022-10-16T12:48:28;2.53;;;1.87;;
5813;SDS011;2933;52.302;8.134;2022-10-16T12:53:32;2.10;;;1.43;;
5813;SDS011;2933;52.302;8.134;2022-10-16T12:58:37;1.80;;;1.27;;
5813;SDS011;2933;52.302;8.134;2022-10-16T13:04:02;3.17;;;1.10;;
5813;SDS011;2933;52.302;8.134;2022-10-16T13:09:39;2.47;;;0.87;;
5813;SDS011;2933;52.302;8.134;2022-10-16T13:14:53;9.70;;;1.23;;
5813;SDS011;2933;52.302;8.134;2022-10-16T13:20:18;1.17;;;1.07;;
5813;SDS011;2933;52.302;8.134;2022-10-16T13:25:34;4.13;;;1.03;;
5813;SDS011;2933;52.302;8.134;2022-10-16T13:30:51;8.47;;;1.10;;
5813;SDS011;2933;52.302;8.134;2022-10-16T13:35:54;3.37;;;0.80;;
5813;SDS011;2933;52.302;8.134;2022-10-16T13:41:03;3.63;;;0.80;;
5813;SDS011;2933;52.302;8.134;2022-10-16T13:46:16;1.37;;;0.83;;
5813;SDS011;2933;52.302;8.134;2022-10-16T13:51:19;2.00;;;0.70;;
5813;SDS011;2933;52.302;8.134;2022-10-16T13:56:24;0.70;;;0.70;;
5813;SDS011;2933;52.302;8.134;2022-10-16T14:01:27;1.40;;;0.70;;
5813;SDS011;2933;52.302;8.134;2022-10-16T14:06:30;2.70;;;0.70;;
5813;SDS011;2933;52.302;8.134;2022-10-16T14:11:34;6.10;;;0.97;;
5813;SDS011;2933;52.302;8.134;2022-10-16T14:16:46;2.47;;;0.70;;
5813;SDS011;2933;52.302;8.134;2022-10-16T14:21:48;2.80;;;0.77;;
5813;SDS011;2933;52.302;8.134;2022-10-16T14:26:52;2.20;;;0.90;;
5813;SDS011;2933;52.302;8.134;2022-10-16T14:31:55;1.00;;;0.90;;
5813;SDS011;2933;52.302;8.134;2022-10-16T14:36:58;9.00;;;1.00;;
5813;SDS011;2933;52.302;8.134;2022-10-16T14:42:11;1.73;;;0.80;;
5813;SDS011;2933;52.302;8.134;2022-10-16T14:47:17;6.13;;;1.23;;
5813;SDS011;2933;52.302;8.134;2022-10-16T14:52:22;0.80;;;0.70;;
5813;SDS011;2933;52.302;8.134;2022-10-16T14:57:26;1.77;;;0.63;;
5813;SDS011;2933;52.302;8.134;2022-10-16T15:02:30;2.17;;;0.90;;
5813;SDS011;2933;52.302;8.134;2022-10-16T15:07:34;3.97;;;0.87;;
5813;SDS011;2933;52.302;8.134;2022-10-16T15:12:36;3.80;;;0.93;;
5813;SDS011;2933;52.302;8.134;2022-10-16T15:17:38;1.40;;;1.07;;
5813;SDS011;2933;52.302;8.134;2022-10-16T15:22:39;1.33;;;0.90;;
5813;SDS011;2933;52.302;8.134;2022-10-16T15:27:42;1.23;;;1.13;;
5813;SDS011;2933;52.302;8.134;2022-10-16T15:32:44;1.80;;;1.00;;
5813;SDS011;2933;52.302;8.134;2022-10-16T15:37:46;2.20;;;0.70;;
5813;SDS011;2933;52.302;8.134;2022-10-16T15:42:49;1.90;;;1.00;;
5813;SDS011;2933;52.302;8.134;2022-10-16T15:47:51;2.40;;;0.90;;
5813;SDS011;2933;52.302;8.134;2022-10-16T15:52:52;3.07;;;1.00;;
5813;SDS011;2933;52.302;8.134;2022-10-16T15:57:55;5.53;;;0.90;;
5813;SDS011;2933;52.302;8.134;2022-10-16T16:02:57;4.83;;;1.00;;
5813;SDS011;2933;52.302;8.134;2022-10-16T16:07:58;7.80;;;1.13;;
5813;SDS011;2933;52.302;8.134;2022-10-16T16:13:01;4.70;;;1.33;;
5813;SDS011;2933;52.302;8.134;2022-10-16T16:18:03;1.07;;;0.80;;
5813;SDS011;2933;52.302;8.134;2022-10-16T16:23:05;7.70;;;1.00;;
5813;SDS011;2933;52.302;8.134;2022-10-16T16:28:08;1.40;;;0.93;;
5813;SDS011;2933;52.302;8.134;2022-10-16T16:33:10;5.03;;;1.50;;
5813;SDS011;2933;52.302;8.134;2022-10-16T16:38:12;2.27;;;2.07;;
5813;SDS011;2933;52.302;8.134;2022-10-16T16:43:15;2.03;;;1.93;;
5813;SDS011;2933;52.302;8.134;2022-10-16T16:48:16;4.33;;;2.40;;
5813;SDS011;2933;52.302;8.134;2022-10-16T16:53:18;4.47;;;1.33;;
5813;SDS011;2933;52.302;8.134;2022-10-16T16:58:20;5.83;;;2.07;;
5813;SDS011;2933;52.302;8.134;2022-10-16T17:03:22;6.83;;;3.23;;
5813;SDS011;2933;52.302;8.134;2022-10-16T17:08:24;4.70;;;2.80;;
5813;SDS011;2933;52.302;8.134;2022-10-16T17:13:27;6.70;;;2.03;;
5813;SDS011;2933;52.302;8.134;2022-10-16T17:18:30;8.47;;;3.43;;
5813;SDS011;2933;52.302;8.134;2022-10-16T17:23:33;5.13;;;3.60;;
5813;SDS011;2933;52.302;8.134;2022-10-16T17:28:38;4.70;;;2.73;;
5813;SDS011;2933;52.302;8.134;2022-10-16T17:33:40;3.57;;;2.40;;
5813;SDS011;2933;52.302;8.134;2022-10-16T17:38:41;2.43;;;1.40;;
5813;SDS011;2933;52.302;8.134;2022-10-16T17:43:45;9.67;;;3.43;;
5813;SDS011;2933;52.302;8.134;2022-10-16T17:48:48;3.37;;;1.50;;
5813;SDS011;2933;52.302;8.134;2022-10-16T17:53:51;4.00;;;1.90;;
5813;SDS011;2933;52.302;8.134;2022-10-16T17:58:56;1.90;;;1.80;;
5813;SDS011;2933;52.302;8.134;2022-10-16T18:04:01;5.13;;;1.70;;
5813;SDS011;2933;52.302;8.134;2022-10-16T18:09:06;8.90;;;2.30;;
5813;SDS011;2933;52.302;8.134;2022-10-16T18:14:11;2.53;;;2.33;;
5813;SDS011;2933;52.302;8.134;2022-10-16T18:19:15;14.40;;;2.90;;
5813;SDS011;2933;52.302;8.134;2022-10-16T18:24:17;5.23;;;2.90;;
5813;SDS011;2933;52.302;8.134;2022-10-16T18:29:20;9.00;;;2.50;;
5813;SDS011;2933;52.302;8.134;2022-10-16T18:34:22;3.20;;;3.00;;
5813;SDS011;2933;52.302;8.134;2022-10-16T18:39:25;7.53;;;3.13;;
5813;SDS011;2933;52.302;8.134;2022-10-16T18:44:28;1.63;;;1.53;;
5813;SDS011;2933;52.302;8.134;2022-10-16T18:49:30;2.03;;;1.93;;
5813;SDS011;2933;52.302;8.134;2022-10-16T18:54:32;3.40;;;1.50;;
5813;SDS011;2933;52.302;8.134;2022-10-16T18:59:35;6.03;;;1.70;;
5813;SDS011;2933;52.302;8.134;2022-10-16T19:04:38;1.77;;;1.53;;
5813;SDS011;2933;52.302;8.134;2022-10-16T19:09:40;2.00;;;1.67;;
5813;SDS011;2933;52.302;8.134;2022-10-16T19:14:43;6.73;;;1.47;;
5813;SDS011;2933;52.302;8.134;2022-10-16T19:19:48;3.90;;;1.23;;
5813;SDS011;2933;52.302;8.134;2022-10-16T19:24:49;2.53;;;1.83;;
5813;SDS011;2933;52.302;8.134;2022-10-16T19:29:52;11.37;;;1.60;;
5813;SDS011;2933;52.302;8.134;2022-10-16T19:34:54;1.70;;;1.60;;
5813;SDS011;2933;52.302;8.134;2022-10-16T19:39:55;5.63;;;4.83;;
5813;SDS011;2933;52.302;8.134;2022-10-16T19:44:58;2.80;;;2.57;;
5813;SDS011;2933;52.302;8.134;2022-10-16T19:50:00;5.43;;;2.57;;
5813;SDS011;2933;52.302;8.134;2022-10-16T19:55:02;2.13;;;2.03;;
5813;SDS011;2933;52.302;8.134;2022-10-16T20:00:06;2.20;;;2.10;;
5813;SDS011;2933;52.302;8.134;2022-10-16T20:05:09;2.23;;;2.00;;
5813;SDS011;2933;52.302;8.134;2022-10-16T20:10:11;2.40;;;1.90;;
5813;SDS011;2933;52.302;8.134;2022-10-16T20:15:14;5.17;;;2.00;;
5813;SDS011;2933;52.302;8.134;2022-10-16T20:20:15;2.33;;;2.17;;
5813;SDS011;2933;52.302;8.134;2022-10-16T20:25:17;3.33;;;2.30;;
5813;SDS011;2933;52.302;8.134;2022-10-16T20:30:20;2.83;;;2.07;;
5813;SDS011;2933;52.302;8.134;2022-10-16T20:35:21;2.53;;;2.30;;
5813;SDS011;2933;52.302;8.134;2022-10-16T20:40:23;10.33;;;2.00;;
5813;SDS011;2933;52.302;8.134;2022-10-16T20:45:26;3.20;;;2.20;;
5813;SDS011;2933;52.302;8.134;2022-10-16T20:50:27;6.53;;;2.53;;
5813;SDS011;2933;52.302;8.134;2022-10-16T20:55:29;2.70;;;2.50;;
5813;SDS011;2933;52.302;8.134;2022-10-16T21:00:33;3.50;;;3.20;;
5813;SDS011;2933;52.302;8.134;2022-10-16T21:05:38;4.47;;;3.83;;
5813;SDS011;2933;52.302;8.134;2022-10-16T21:10:40;5.50;;;5.20;;
5813;SDS011;2933;52.302;8.134;2022-10-16T21:15:43;5.33;;;5.00;;
5813;SDS011;2933;52.302;8.134;2022-10-16T21:20:45;5.70;;;5.40;;
5813;SDS011;2933;52.302;8.134;2022-10-16T21:25:47;6.20;;;5.60;;
5813;SDS011;2933;52.302;8.134;2022-10-16T21:30:50;6.30;;;5.80;;
5813;SDS011;2933;52.302;8.134;2022-10-16T21:35:51;6.10;;;5.60;;
5813;SDS011;2933;52.302;8.134;2022-10-16T21:40:54;6.47;;;6.07;;
5813;SDS011;2933;52.302;8.134;2022-10-16T21:45:57;5.67;;;5.43;;
5813;SDS011;2933;52.302;8.134;2022-10-16T21:50:58;7.23;;;6.83;;
5813;SDS011;2933;52.302;8.134;2022-10-16T21:56:00;10.83;;;7.47;;
5813;SDS011;2933;52.302;8.134;2022-10-16T22:01:06;7.33;;;6.87;;
5813;SDS011;2933;52.302;8.134;2022-10-16T22:06:09;7.00;;;6.50;;
5813;SDS011;2933;52.302;8.134;2022-10-16T22:11:12;7.60;;;7.13;;
5813;SDS011;2933;52.302;8.134;2022-10-16T22:16:19;7.77;;;7.27;;
5813;SDS011;2933;52.302;8.134;2022-10-16T22:21:21;8.40;;;7.70;;
5813;SDS011;2933;52.302;8.134;2022-10-16T22:26:23;8.40;;;7.90;;
5813;SDS011;2933;52.302;8.134;2022-10-16T22:31:26;8.40;;;7.67;;
5813;SDS011;2933;52.302;8.134;2022-10-16T22:36:28;8.97;;;8.47;;
5813;SDS011;2933;52.302;8.134;2022-10-16T22:41:30;9.07;;;8.37;;
5813;SDS011;2933;52.302;8.134;2022-10-16T22:46:33;9.63;;;8.10;;
5813;SDS011;2933;52.302;8.134;2022-10-16T22:51:35;8.13;;;7.53;;
5813;SDS011;2933;52.302;8.134;2022-10-16T22:56:36;8.73;;;8.33;;
5813;SDS011;2933;52.302;8.134;2022-10-16T23:01:40;9.27;;;8.50;;
5813;SDS011;2933;52.302;8.134;2022-10-16T23:06:42;9.70;;;7.90;;
5813;SDS011;2933;52.302;8.134;2022-10-16T23:11:43;7.37;;;6.80;;
5813;SDS011;2933;52.302;8.134;2022-10-16T23:16:46;6.40;;;6.20;;
5813;SDS011;2933;52.302;8.134;2022-10-16T23:21:48;7.17;;;6.37;;
5813;SDS011;2933;52.302;8.134;2022-10-16T23:26:49;6.37;;;6.07;;
5813;SDS011;2933;52.302;8.134;2022-10-16T23:31:53;6.73;;;5.80;;
5813;SDS011;2933;52.302;8.134;2022-10-16T23:36:55;6.67;;;6.27;;
5813;SDS011;2933;52.302;8.134;2022-10-16T23:41:56;7.13;;;6.83;;
5813;SDS011;2933;52.302;8.134;2022-10-16T23:46:59;15.10;;;8.30;;
5813;SDS011;2933;52.302;8.134;2022-10-16T23:52:01;9.87;;;8.90;;
5813;SDS011;2933;52.302;8.134;2022-10-16T23:57:02;9.20;;;8.70;;
